Time;durP1;ratioP1;P1;durP2;ratioP2;P2;SDS_P1;SDS_P2;PMS_P1;PMS_P2;Temp;Humidity;BMP_temperature;BMP_pressure;BME280_temperature;BME280_humidity;BME280_pressure;Samples;Min_cycle;Max_cycle;Signal;HPM_P1;HPM_P2
2023/08/27 00:00:12;;;;;;;;;;;;;;;;;;2050245;29;20370;-94
2023/08/27 00:01:13;;;;;;;;;;;;;;;;;;2042272;29;20009;-93
2023/08/27 00:02:13;;;;;;;;;;;;;;;;;;2050377;29;19937;-93
2023/08/27 00:03:13;;;;;;;;;;;;;;;;;;2050149;28;19914;-93
2023/08/27 00:04:14;;;;;;;;;;;;;;;;;;2042284;29;19914;-93
2023/08/27 00:05:14;;;;;;;;;;;;;;;;;;2042109;29;20394;-94
2023/08/27 00:06:14;;;;;;;;;;;;;;;;;;2042448;29;19986;-94
2023/08/27 00:07:15;;;;;;;;;;;;;;;;;;1692821;29;10250511;-93
2023/08/27 00:08:16;;;;;;;;;;;;;;;;;;2050222;28;19914;-93
2023/08/27 00:09:16;;;;;;;;;;;;;;;;;;2050128;29;19919;-92
2023/08/27 00:10:16;;;;;;;;;;;;;;;;;;2050120;29;19970;-93
2023/08/27 00:11:18;;;;;;;;;;;;;;;;;;2050343;29;20322;-93
2023/08/27 00:12:18;;;;;;;;;;;;;;;;;;2042390;29;19915;-93
2023/08/27 00:13:19;;;;;;;;;;;;;;;;;;2042522;29;19986;-93
2023/08/27 00:14:19;;;;;;;;;;;;;;;;;;2042140;29;20013;-93
2023/08/27 00:15:19;;;;;;;;;;;;;;;;;;2042180;29;20001;-93
2023/08/27 00:16:20;;;;;;;;;;;;;;;;;;2042207;29;19962;-94
2023/08/27 00:17:21;;;;;;;;;;;;;;;;;;2042036;29;19969;-93
2023/08/27 00:18:21;;;;;;;;;;;;;;;;;;2041988;29;19915;-93
2023/08/27 00:19:21;;;;;;;;;;;;;;;;;;2042053;29;19934;-93
2023/08/27 00:20:22;;;;;;;;;;;;;;;;;;2042120;29;19923;-93
2023/08/27 00:21:22;;;;;;;;;;;;;;;;;;2050044;29;20433;-93
2023/08/27 00:22:22;;;;;;;;;;;;;;;;;;2041970;29;20351;-93
2023/08/27 00:23:23;;;;;;;;;;;;;;;;;;2049876;29;20007;-92
2023/08/27 00:24:24;;;;;;;;;;;;;;;;;;2050110;28;19914;-92
2023/08/27 00:25:24;;;;;;;;;;;;;;;;;;2049627;29;20461;-94
2023/08/27 00:26:24;;;;;;;;;;;;;;;;;;2059643;28;19966;-93
2023/08/27 00:27:25;;;;;;;;;;;;;;;;;;2063972;28;19938;-93
2023/08/27 00:28:25;;;;;;;;;;;;;;;;;;2062840;28;20295;-93
2023/08/27 00:29:25;;;;;;;;;;;;;;;;;;2050702;29;19977;-94
2023/08/27 00:30:25;;;;;;;;;;;;;;;;;;2050033;29;19970;-93
2023/08/27 00:31:26;;;;;;;;;;;;;;;;;;2049788;29;19922;-92
2023/08/27 00:32:30;;;;;;;;;;;;;;;;;;2049678;28;19921;-93
2023/08/27 00:33:30;;;;;;;;;;;;;;;;;;2049822;29;20009;-93
2023/08/27 00:34:32;;;;;;;;;;;;;;;;;;2049609;28;19914;-93
2023/08/27 00:35:32;;;;;;;;;;;;;;;;;;2041741;29;19977;-94
2023/08/27 00:36:32;;;;;;;;;;;;;;;;;;2049767;28;19914;-92
2023/08/27 00:37:33;;;;;;;;;;;;;;;;;;2054642;28;20374;-93
2023/08/27 00:38:33;;;;;;;;;;;;;;;;;;2049644;29;19915;-93
2023/08/27 00:39:33;;;;;;;;;;;;;;;;;;2041733;29;20474;-92
2023/08/27 00:40:34;;;;;;;;;;;;;;;;;;2041714;29;19922;-91
2023/08/27 00:41:34;;;;;;;;;;;;;;;;;;2050236;29;19919;-93
2023/08/27 00:42:35;;;;;;;;;;;;;;;;;;2066761;28;19925;-92
2023/08/27 00:43:35;;;;;;;;;;;;;;;;;;2059101;28;19969;-93
2023/08/27 00:44:36;;;;;;;;;;;;;;;;;;2042020;29;19966;-93
2023/08/27 00:45:36;;;;;;;;;;;;;;;;;;2049974;28;19919;-91
2023/08/27 00:46:37;;;;;;;;;;;;;;;;;;2049976;28;19921;-92
2023/08/27 00:47:37;;;;;;;;;;;;;;;;;;2049840;29;19918;-92
2023/08/27 00:48:37;;;;;;;;;;;;;;;;;;2057913;28;19914;-92
2023/08/27 00:49:38;;;;;;;;;;;;;;;;;;2049772;28;20025;-92
2023/08/27 00:50:39;;;;;;;;;;;;;;;;;;2050114;29;19914;-93
2023/08/27 00:51:39;;;;;;;;;;;;;;;;;;2049442;28;19968;-91
2023/08/27 00:52:40;;;;;;;;;;;;;;;;;;2049160;28;19915;-93
2023/08/27 00:53:40;;;;;;;;;;;;;;;;;;2057655;28;19918;-93
2023/08/27 00:54:41;;;;;;;;;;;;;;;;;;2044355;29;19914;-92
2023/08/27 00:55:41;;;;;;;;;;;;;;;;;;2049563;28;20010;-92
2023/08/27 00:56:43;;;;;;;;;;;;;;;;;;2050513;29;19918;-92
2023/08/27 00:57:45;;;;;;;;;;;;;;;;;;2041996;29;20010;-92
2023/08/27 00:58:45;;;;;;;;;;;;;;;;;;2047470;28;20334;-93
2023/08/27 01:00:55;;;;;;;;;;;;;;;;;;2283357;23;20052;-93
2023/08/27 01:01:56;;;;;;;;;;;;;;;;;;2057468;28;19922;-91
2023/08/27 01:02:56;;;;;;;;;;;;;;;;;;2049369;29;19997;-93
2023/08/27 01:03:56;;;;;;;;;;;;;;;;;;2049490;29;20390;-94
2023/08/27 01:04:58;;;;;;;;;;;;;;;;;;2049545;28;19919;-94
2023/08/27 01:05:58;;;;;;;;;;;;;;;;;;2041445;29;20426;-94
2023/08/27 01:07:01;;;;;;;;;;;;;;;;;;2041534;29;19953;-93
2023/08/27 01:08:09;;;;;;;;;;;;;;;;;;2049391;29;20362;-93
2023/08/27 01:09:16;;;;;;;;;;;;;;;;;;2049453;29;19925;-94
2023/08/27 01:10:25;;;;;;;;;;;;;;;;;;2049235;28;20342;-93
2023/08/27 01:11:30;;;;;;;;;;;;;;;;;;2050748;28;20420;-94
2023/08/27 01:12:38;;;;;;;;;;;;;;;;;;2049186;29;19906;-93
2023/08/27 01:13:50;;;;;;;;;;;;;;;;;;2042145;29;19961;-92
2023/08/27 01:14:51;;;;;;;;;;;;;;;;;;2049422;29;19914;-92
2023/08/27 01:15:56;;;;;;;;;;;;;;;;;;2049058;29;19961;-93
2023/08/27 01:16:58;;;;;;;;;;;;;;;;;;2042143;29;19915;-93
2023/08/27 01:17:59;;;;;;;;;;;;;;;;;;2041353;29;19919;-93
2023/08/27 01:19:00;;;;;;;;;;;;;;;;;;2049117;29;19915;-93
2023/08/27 01:20:00;;;;;;;;;;;;;;;;;;2049311;29;19918;-93
2023/08/27 01:21:14;;;;;;;;;;;;;;;;;;2049278;29;20015;-93
2023/08/27 01:22:14;;;;;;;;;;;;;;;;;;2049235;29;20045;-93
2023/08/27 01:23:15;;;;;;;;;;;;;;;;;;2041139;29;20358;-93
2023/08/27 01:24:15;;;;;;;;;;;;;;;;;;2049373;29;20301;-93
2023/08/27 01:25:18;;;;;;;;;;;;;;;;;;2057808;28;19909;-93
2023/08/27 01:26:32;;;;;;;;;;;;;;;;;;2049283;29;19914;-93
2023/08/27 01:27:43;;;;;;;;;;;;;;;;;;2051169;28;19918;-93
2023/08/27 01:28:46;;;;;;;;;;;;;;;;;;2050773;29;19997;-93
2023/08/27 01:29:46;;;;;;;;;;;;;;;;;;2049187;29;19918;-93
2023/08/27 01:30:55;;;;;;;;;;;;;;;;;;2049622;29;19919;-92
2023/08/27 01:32:04;;;;;;;;;;;;;;;;;;2052568;29;19919;-93
2023/08/27 01:33:10;;;;;;;;;;;;;;;;;;2050527;28;19918;-93
2023/08/27 01:34:13;;;;;;;;;;;;;;;;;;2049447;28;19937;-93
2023/08/27 01:35:14;;;;;;;;;;;;;;;;;;2049769;28;19966;-92
2023/08/27 01:36:14;;;;;;;;;;;;;;;;;;2049509;29;20030;-93
2023/08/27 01:37:15;;;;;;;;;;;;;;;;;;2041465;29;19954;-93
2023/08/27 01:38:15;;;;;;;;;;;;;;;;;;2041445;29;19919;-93
2023/08/27 01:39:15;;;;;;;;;;;;;;;;;;2041437;29;20016;-93
2023/08/27 01:40:17;;;;;;;;;;;;;;;;;;2041508;29;20330;-92
2023/08/27 01:41:17;;;;;;;;;;;;;;;;;;2041518;29;19981;-93
2023/08/27 01:42:17;;;;;;;;;;;;;;;;;;2049369;28;19914;-93
2023/08/27 01:43:18;;;;;;;;;;;;;;;;;;2049260;29;19993;-93
2023/08/27 01:44:18;;;;;;;;;;;;;;;;;;2041421;29;19922;-93
2023/08/27 01:45:18;;;;;;;;;;;;;;;;;;2043105;29;20374;-93
2023/08/27 01:46:19;;;;;;;;;;;;;;;;;;2041705;29;19950;-93
2023/08/27 01:47:19;;;;;;;;;;;;;;;;;;2049346;29;20378;-93
2023/08/27 01:48:19;;;;;;;;;;;;;;;;;;2049186;29;20048;-93
2023/08/27 01:49:19;;;;;;;;;;;;;;;;;;2049504;29;20417;-93
2023/08/27 01:50:20;;;;;;;;;;;;;;;;;;2049663;29;19914;-92
2023/08/27 01:51:20;;;;;;;;;;;;;;;;;;2050786;28;19914;-93
2023/08/27 01:52:20;;;;;;;;;;;;;;;;;;2044847;29;19914;-94
2023/08/27 01:53:21;;;;;;;;;;;;;;;;;;2045332;29;19918;-93
2023/08/27 01:54:21;;;;;;;;;;;;;;;;;;2057918;29;19938;-92
2023/08/27 01:55:38;;;;;;;;;;;;;;;;;;1876879;29;10001404;-93
2023/08/27 01:56:38;;;;;;;;;;;;;;;;;;1709655;29;10000564;-93
2023/08/27 01:57:39;;;;;;;;;;;;;;;;;;2052458;28;19918;-93
2023/08/27 01:58:40;;;;;;;;;;;;;;;;;;2041947;29;19938;-92
2023/08/27 01:59:42;;;;;;;;;;;;;;;;;;2049566;29;20441;-94
2023/08/27 02:00:43;;;;;;;;;;;;;;;;;;2049211;28;19957;-93
2023/08/27 02:01:43;;;;;;;;;;;;;;;;;;2045682;28;19926;-93
2023/08/27 02:02:44;;;;;;;;;;;;;;;;;;2058025;28;19985;-92
2023/08/27 02:03:46;;;;;;;;;;;;;;;;;;2049202;28;19926;-93
2023/08/27 02:04:46;;;;;;;;;;;;;;;;;;2043855;29;19915;-93
2023/08/27 02:05:47;;;;;;;;;;;;;;;;;;2051704;28;20408;-93
2023/08/27 02:06:47;;;;;;;;;;;;;;;;;;2052971;28;19918;-92
2023/08/27 02:07:47;;;;;;;;;;;;;;;;;;2052039;29;19918;-91
2023/08/27 02:08:48;;;;;;;;;;;;;;;;;;2044978;29;20371;-92
2023/08/27 02:09:48;;;;;;;;;;;;;;;;;;2056127;29;19922;-91
2023/08/27 02:10:48;;;;;;;;;;;;;;;;;;2056593;29;20038;-92
2023/08/27 02:11:49;;;;;;;;;;;;;;;;;;2056085;29;19994;-91
2023/08/27 02:12:49;;;;;;;;;;;;;;;;;;2055856;29;19933;-92
2023/08/27 02:13:50;;;;;;;;;;;;;;;;;;2044482;29;20386;-93
2023/08/27 02:14:50;;;;;;;;;;;;;;;;;;2041170;29;20012;-93
2023/08/27 02:15:50;;;;;;;;;;;;;;;;;;2044286;29;19922;-92
2023/08/27 02:16:50;;;;;;;;;;;;;;;;;;2050686;29;19966;-93
2023/08/27 02:17:51;;;;;;;;;;;;;;;;;;2054743;29;20306;-91
2023/08/27 02:18:51;;;;;;;;;;;;;;;;;;2041196;29;19965;-92
2023/08/27 02:19:51;;;;;;;;;;;;;;;;;;2049722;29;19919;-93
2023/08/27 02:20:53;;;;;;;;;;;;;;;;;;2049111;29;19915;-93
2023/08/27 02:21:53;;;;;;;;;;;;;;;;;;2041423;29;19925;-93
2023/08/27 02:22:54;;;;;;;;;;;;;;;;;;2041391;29;20017;-92
2023/08/27 02:23:54;;;;;;;;;;;;;;;;;;2041152;29;19918;-93
2023/08/27 02:24:54;;;;;;;;;;;;;;;;;;2049647;29;19914;-94
2023/08/27 02:25:55;;;;;;;;;;;;;;;;;;2057757;28;19924;-91
2023/08/27 02:26:55;;;;;;;;;;;;;;;;;;2057794;28;20076;-92
2023/08/27 02:27:55;;;;;;;;;;;;;;;;;;2048785;29;20026;-93
2023/08/27 02:28:55;;;;;;;;;;;;;;;;;;2041125;29;20403;-91
2023/08/27 02:29:56;;;;;;;;;;;;;;;;;;2049208;29;20016;-93
2023/08/27 02:30:56;;;;;;;;;;;;;;;;;;2049166;29;19919;-93
2023/08/27 02:31:56;;;;;;;;;;;;;;;;;;2048940;29;19995;-94
2023/08/27 02:32:56;;;;;;;;;;;;;;;;;;2032147;29;20387;-92
2023/08/27 02:33:57;;;;;;;;;;;;;;;;;;2040904;29;19975;-93
2023/08/27 02:34:57;;;;;;;;;;;;;;;;;;2049127;28;20333;-93
2023/08/27 02:35:58;;;;;;;;;;;;;;;;;;2041332;29;19923;-93
2023/08/27 02:36:58;;;;;;;;;;;;;;;;;;2049038;29;20392;-92
2023/08/27 02:37:58;;;;;;;;;;;;;;;;;;2048781;29;19966;-93
2023/08/27 02:38:58;;;;;;;;;;;;;;;;;;2040925;29;19925;-92
2023/08/27 02:39:59;;;;;;;;;;;;;;;;;;2048786;29;20415;-93
2023/08/27 02:40:59;;;;;;;;;;;;;;;;;;2052454;29;19913;-93
2023/08/27 02:41:59;;;;;;;;;;;;;;;;;;2058973;28;19949;-93
2023/08/27 02:42:59;;;;;;;;;;;;;;;;;;2051467;28;19986;-91
2023/08/27 02:44:00;;;;;;;;;;;;;;;;;;2057590;28;20010;-94
2023/08/27 02:45:00;;;;;;;;;;;;;;;;;;2041795;29;20013;-93
2023/08/27 02:46:00;;;;;;;;;;;;;;;;;;2048903;29;19918;-92
2023/08/27 02:47:00;;;;;;;;;;;;;;;;;;2049234;29;19926;-92
2023/08/27 02:48:01;;;;;;;;;;;;;;;;;;2040917;29;19951;-92
2023/08/27 02:49:01;;;;;;;;;;;;;;;;;;2040742;29;19919;-92
2023/08/27 02:50:03;;;;;;;;;;;;;;;;;;2040856;29;20314;-92
2023/08/27 02:51:03;;;;;;;;;;;;;;;;;;2040829;29;19919;-92
2023/08/27 02:52:03;;;;;;;;;;;;;;;;;;2048730;28;19993;-92
2023/08/27 02:53:04;;;;;;;;;;;;;;;;;;2048400;29;19911;-92
2023/08/27 02:54:04;;;;;;;;;;;;;;;;;;2040540;29;19919;-91
2023/08/27 02:55:04;;;;;;;;;;;;;;;;;;2038199;29;20425;-91
2023/08/27 02:56:04;;;;;;;;;;;;;;;;;;2040936;29;19919;-91
2023/08/27 02:57:05;;;;;;;;;;;;;;;;;;2040567;29;19930;-91
2023/08/27 02:58:05;;;;;;;;;;;;;;;;;;2040557;29;19937;-93
2023/08/27 02:59:10;;;;;;;;;;;;;;;;;;2041777;29;19923;-93
2023/08/27 03:01:27;;;;;;;;;;;;;;;;;;2057430;28;19965;-92
2023/08/27 03:02:28;;;;;;;;;;;;;;;;;;2055432;28;19996;-92
2023/08/27 03:03:28;;;;;;;;;;;;;;;;;;2064398;28;19941;-92
2023/08/27 03:04:28;;;;;;;;;;;;;;;;;;2061370;28;19902;-91
2023/08/27 03:05:29;;;;;;;;;;;;;;;;;;2049295;28;19957;-93
2023/08/27 03:06:29;;;;;;;;;;;;;;;;;;2048770;29;19968;-92
2023/08/27 03:07:29;;;;;;;;;;;;;;;;;;2057061;28;19941;-92
2023/08/27 03:08:30;;;;;;;;;;;;;;;;;;2064834;28;20353;-92
2023/08/27 03:09:30;;;;;;;;;;;;;;;;;;2057771;28;20045;-92
2023/08/27 03:10:31;;;;;;;;;;;;;;;;;;2057750;28;20001;-93
2023/08/27 03:11:31;;;;;;;;;;;;;;;;;;2057053;28;19921;-92
2023/08/27 03:12:31;;;;;;;;;;;;;;;;;;2057650;28;19921;-92
2023/08/27 03:13:31;;;;;;;;;;;;;;;;;;2057588;28;19936;-93
2023/08/27 03:14:32;;;;;;;;;;;;;;;;;;2057269;28;19914;-93
2023/08/27 03:15:32;;;;;;;;;;;;;;;;;;2058097;28;20357;-92
2023/08/27 03:16:32;;;;;;;;;;;;;;;;;;2054312;28;20001;-92
2023/08/27 03:17:32;;;;;;;;;;;;;;;;;;2050556;28;19922;-93
2023/08/27 03:18:33;;;;;;;;;;;;;;;;;;2050333;29;19915;-93
2023/08/27 03:19:33;;;;;;;;;;;;;;;;;;2058258;28;19918;-93
2023/08/27 03:20:33;;;;;;;;;;;;;;;;;;2050243;28;19918;-91
2023/08/27 03:21:33;;;;;;;;;;;;;;;;;;2058226;28;19924;-93
2023/08/27 03:22:34;;;;;;;;;;;;;;;;;;2050309;28;19965;-93
2023/08/27 03:23:35;;;;;;;;;;;;;;;;;;2050567;29;20343;-93
2023/08/27 03:24:36;;;;;;;;;;;;;;;;;;2050504;28;19946;-93
2023/08/27 03:25:36;;;;;;;;;;;;;;;;;;2050477;28;19918;-92
2023/08/27 03:26:36;;;;;;;;;;;;;;;;;;2058483;28;20012;-93
2023/08/27 03:27:36;;;;;;;;;;;;;;;;;;2058551;28;20538;-93
2023/08/27 03:28:37;;;;;;;;;;;;;;;;;;2050505;28;19925;-92
2023/08/27 03:29:37;;;;;;;;;;;;;;;;;;2058606;28;19922;-93
2023/08/27 03:30:39;;;;;;;;;;;;;;;;;;2058962;28;20038;-91
2023/08/27 03:31:39;;;;;;;;;;;;;;;;;;2059130;28;19918;-92
2023/08/27 03:32:39;;;;;;;;;;;;;;;;;;1698253;28;10507285;-92
2023/08/27 03:33:39;;;;;;;;;;;;;;;;;;2058284;28;19914;-92
2023/08/27 03:34:40;;;;;;;;;;;;;;;;;;2050190;28;19958;-92
2023/08/27 03:35:40;;;;;;;;;;;;;;;;;;2050094;29;19914;-93
2023/08/27 03:36:40;;;;;;;;;;;;;;;;;;2050230;28;20374;-93
2023/08/27 03:37:42;;;;;;;;;;;;;;;;;;2065185;28;19922;-92
2023/08/27 03:38:42;;;;;;;;;;;;;;;;;;2058528;28;19918;-92
2023/08/27 03:39:42;;;;;;;;;;;;;;;;;;2050748;29;20064;-92
2023/08/27 03:40:49;;;;;;;;;;;;;;;;;;2058253;28;19962;-92
2023/08/27 03:41:49;;;;;;;;;;;;;;;;;;2058221;28;19918;-92
2023/08/27 03:42:49;;;;;;;;;;;;;;;;;;2058084;28;19956;-92
2023/08/27 03:43:49;;;;;;;;;;;;;;;;;;2050246;28;19978;-92
2023/08/27 03:44:50;;;;;;;;;;;;;;;;;;2058053;28;19918;-93
2023/08/27 03:45:50;;;;;;;;;;;;;;;;;;2050452;29;20345;-92
2023/08/27 03:46:50;;;;;;;;;;;;;;;;;;2050185;28;19919;-93
2023/08/27 03:47:50;;;;;;;;;;;;;;;;;;2050009;28;20059;-93
2023/08/27 03:48:51;;;;;;;;;;;;;;;;;;2050213;29;20293;-92
2023/08/27 03:49:51;;;;;;;;;;;;;;;;;;2052358;28;19925;-93
2023/08/27 03:50:51;;;;;;;;;;;;;;;;;;2058664;28;19990;-93
2023/08/27 03:51:52;;;;;;;;;;;;;;;;;;2056566;28;20588;-93
2023/08/27 03:52:52;;;;;;;;;;;;;;;;;;2058965;28;20001;-93
2023/08/27 03:53:53;;;;;;;;;;;;;;;;;;2058542;28;20009;-93
2023/08/27 03:54:53;;;;;;;;;;;;;;;;;;2066989;28;19949;-93
2023/08/27 03:55:55;;;;;;;;;;;;;;;;;;2059387;28;20016;-93
2023/08/27 03:56:55;;;;;;;;;;;;;;;;;;2057580;28;19949;-92
2023/08/27 03:57:55;;;;;;;;;;;;;;;;;;2050996;28;19918;-93
2023/08/27 03:58:55;;;;;;;;;;;;;;;;;;2050631;29;19926;-92
2023/08/27 03:59:56;;;;;;;;;;;;;;;;;;2058503;28;19976;-92
2023/08/27 04:00:56;;;;;;;;;;;;;;;;;;2058362;28;19925;-92
2023/08/27 04:01:57;;;;;;;;;;;;;;;;;;2066815;28;19918;-94
2023/08/27 04:02:57;;;;;;;;;;;;;;;;;;2058075;28;20373;-91
2023/08/27 04:03:57;;;;;;;;;;;;;;;;;;2050331;28;19929;-92
2023/08/27 04:04:57;;;;;;;;;;;;;;;;;;2058529;28;20324;-92
2023/08/27 04:05:58;;;;;;;;;;;;;;;;;;2066207;28;20284;-92
2023/08/27 04:06:58;;;;;;;;;;;;;;;;;;2058359;28;19946;-91
2023/08/27 04:07:59;;;;;;;;;;;;;;;;;;2050487;28;20449;-92
2023/08/27 04:08:59;;;;;;;;;;;;;;;;;;2058093;28;19914;-93
2023/08/27 04:09:59;;;;;;;;;;;;;;;;;;2066128;28;20024;-92
2023/08/27 04:11:00;;;;;;;;;;;;;;;;;;2058230;28;20000;-91
2023/08/27 04:12:01;;;;;;;;;;;;;;;;;;2058132;28;19961;-92
2023/08/27 04:13:03;;;;;;;;;;;;;;;;;;2050253;28;20342;-92
2023/08/27 04:14:04;;;;;;;;;;;;;;;;;;2057985;28;19925;-92
2023/08/27 04:15:06;;;;;;;;;;;;;;;;;;2058191;28;19964;-93
2023/08/27 04:16:07;;;;;;;;;;;;;;;;;;2059541;28;19927;-92
2023/08/27 04:17:07;;;;;;;;;;;;;;;;;;2060502;28;19918;-92
2023/08/27 04:18:07;;;;;;;;;;;;;;;;;;2058683;28;19953;-92
2023/08/27 04:19:08;;;;;;;;;;;;;;;;;;2058829;28;19954;-92
2023/08/27 04:20:08;;;;;;;;;;;;;;;;;;2050926;28;20551;-91
2023/08/27 04:21:09;;;;;;;;;;;;;;;;;;2049999;28;19914;-91
2023/08/27 04:22:09;;;;;;;;;;;;;;;;;;2049793;29;19946;-91
2023/08/27 04:23:09;;;;;;;;;;;;;;;;;;2057919;28;20299;-93
2023/08/27 04:24:09;;;;;;;;;;;;;;;;;;2050000;28;19914;-92
2023/08/27 04:25:13;;;;;;;;;;;;;;;;;;2057741;28;19965;-94
2023/08/27 04:26:14;;;;;;;;;;;;;;;;;;2058223;28;19914;-91
2023/08/27 04:27:14;;;;;;;;;;;;;;;;;;2057715;28;19914;-93
2023/08/27 04:28:15;;;;;;;;;;;;;;;;;;2049783;28;19914;-93
2023/08/27 04:29:15;;;;;;;;;;;;;;;;;;2050027;28;20023;-92
2023/08/27 04:30:16;;;;;;;;;;;;;;;;;;2057904;28;20039;-93
2023/08/27 04:31:16;;;;;;;;;;;;;;;;;;2057514;28;19914;-92
2023/08/27 04:32:16;;;;;;;;;;;;;;;;;;2049530;28;19918;-93
2023/08/27 04:33:17;;;;;;;;;;;;;;;;;;2049436;29;19989;-93
2023/08/27 04:34:18;;;;;;;;;;;;;;;;;;2058235;28;19918;-92
2023/08/27 04:35:18;;;;;;;;;;;;;;;;;;2059196;28;20290;-90
2023/08/27 04:36:18;;;;;;;;;;;;;;;;;;2057747;28;19925;-90
2023/08/27 04:37:18;;;;;;;;;;;;;;;;;;2052374;28;19918;-90
2023/08/27 04:38:21;;;;;;;;;;;;;;;;;;2063540;28;19921;-88
2023/08/27 04:39:22;;;;;;;;;;;;;;;;;;2058252;28;19914;-89
2023/08/27 04:40:23;;;;;;;;;;;;;;;;;;2057297;28;19925;-91
2023/08/27 04:41:23;;;;;;;;;;;;;;;;;;2057658;28;20004;-90
2023/08/27 04:42:24;;;;;;;;;;;;;;;;;;2058074;28;19933;-90
2023/08/27 04:43:24;;;;;;;;;;;;;;;;;;2051802;28;20001;-91
2023/08/27 04:44:26;;;;;;;;;;;;;;;;;;2048549;28;19924;-90
2023/08/27 04:45:26;;;;;;;;;;;;;;;;;;2049316;28;19918;-91
2023/08/27 04:46:26;;;;;;;;;;;;;;;;;;2048983;28;19926;-91
2023/08/27 04:47:27;;;;;;;;;;;;;;;;;;2049123;29;21057;-90
2023/08/27 04:48:27;;;;;;;;;;;;;;;;;;2048790;28;19950;-91
2023/08/27 04:49:27;;;;;;;;;;;;;;;;;;2048748;28;19920;-91
2023/08/27 04:50:28;;;;;;;;;;;;;;;;;;2056644;28;20365;-90
2023/08/27 04:51:28;;;;;;;;;;;;;;;;;;2056782;28;19960;-90
2023/08/27 04:52:28;;;;;;;;;;;;;;;;;;2057167;28;19968;-91
2023/08/27 04:53:28;;;;;;;;;;;;;;;;;;2056690;28;20001;-91
2023/08/27 04:54:29;;;;;;;;;;;;;;;;;;2056951;28;20342;-91
2023/08/27 04:55:29;;;;;;;;;;;;;;;;;;2056635;28;19972;-90
2023/08/27 04:56:30;;;;;;;;;;;;;;;;;;2056652;28;20099;-91
2023/08/27 04:57:30;;;;;;;;;;;;;;;;;;2054573;28;20179;-91
2023/08/27 04:58:30;;;;;;;;;;;;;;;;;;2048584;28;19918;-91
2023/08/27 04:59:30;;;;;;;;;;;;;;;;;;2048900;28;20017;-91
2023/08/27 05:00:31;;;;;;;;;;;;;;;;;;2062906;28;19974;-91
2023/08/27 05:01:31;;;;;;;;;;;;;;;;;;2068168;28;19918;-91
2023/08/27 05:02:32;;;;;;;;;;;;;;;;;;2055232;28;19929;-90
2023/08/27 05:03:32;;;;;;;;;;;;;;;;;;2056741;28;19978;-90
2023/08/27 05:04:32;;;;;;;;;;;;;;;;;;2056850;28;19922;-91
2023/08/27 05:05:32;;;;;;;;;;;;;;;;;;2057382;28;19925;-91
2023/08/27 05:06:33;;;;;;;;;;;;;;;;;;2057609;28;20064;-91
2023/08/27 05:07:33;;;;;;;;;;;;;;;;;;2052577;28;19940;-91
2023/08/27 05:08:33;;;;;;;;;;;;;;;;;;2057046;28;19918;-90
2023/08/27 05:09:33;;;;;;;;;;;;;;;;;;2056760;28;19914;-89
2023/08/27 05:10:34;;;;;;;;;;;;;;;;;;2054691;28;20412;-91
2023/08/27 05:11:34;;;;;;;;;;;;;;;;;;2062247;28;20508;-90
2023/08/27 05:12:35;;;;;;;;;;;;;;;;;;2057354;28;19910;-91
2023/08/27 05:13:38;;;;;;;;;;;;;;;;;;2057440;28;19918;-92
2023/08/27 05:14:38;;;;;;;;;;;;;;;;;;2053234;28;20063;-91
2023/08/27 05:15:39;;;;;;;;;;;;;;;;;;2056345;28;19918;-91
2023/08/27 05:16:39;;;;;;;;;;;;;;;;;;2056523;28;20016;-91
2023/08/27 05:17:39;;;;;;;;;;;;;;;;;;2048600;29;20032;-91
2023/08/27 05:18:40;;;;;;;;;;;;;;;;;;2056525;28;19914;-92
2023/08/27 05:19:40;;;;;;;;;;;;;;;;;;2054439;28;20025;-91
2023/08/27 05:20:40;;;;;;;;;;;;;;;;;;2056613;28;20361;-91
2023/08/27 05:21:43;;;;;;;;;;;;;;;;;;2057158;28;19925;-92
2023/08/27 05:22:43;;;;;;;;;;;;;;;;;;2057404;28;19965;-89
2023/08/27 05:23:44;;;;;;;;;;;;;;;;;;2054244;28;19944;-88
2023/08/27 05:24:44;;;;;;;;;;;;;;;;;;2050773;28;20418;-87
2023/08/27 05:25:44;;;;;;;;;;;;;;;;;;2062490;28;19993;-89
2023/08/27 05:26:45;;;;;;;;;;;;;;;;;;2056844;28;19926;-92
2023/08/27 05:27:45;;;;;;;;;;;;;;;;;;2056982;28;19972;-90
2023/08/27 05:28:45;;;;;;;;;;;;;;;;;;2057307;28;20389;-89
2023/08/27 05:29:50;;;;;;;;;;;;;;;;;;2059500;28;19929;-90
2023/08/27 05:30:51;;;;;;;;;;;;;;;;;;2061357;28;19918;-90
2023/08/27 05:31:51;;;;;;;;;;;;;;;;;;2065742;28;19997;-90
2023/08/27 05:32:53;;;;;;;;;;;;;;;;;;2062575;28;19918;-90
2023/08/27 05:33:53;;;;;;;;;;;;;;;;;;2056157;29;19925;-90
2023/08/27 05:34:56;;;;;;;;;;;;;;;;;;2056381;28;19971;-90
2023/08/27 05:35:56;;;;;;;;;;;;;;;;;;2050222;29;19946;-90
2023/08/27 05:36:57;;;;;;;;;;;;;;;;;;2056375;29;19914;-90
2023/08/27 05:37:57;;;;;;;;;;;;;;;;;;2062320;28;19994;-91
2023/08/27 05:38:58;;;;;;;;;;;;;;;;;;2062180;28;19922;-90
2023/08/27 05:39:58;;;;;;;;;;;;;;;;;;2058103;28;19922;-90
2023/08/27 05:40:58;;;;;;;;;;;;;;;;;;2056918;28;19966;-91
2023/08/27 05:41:59;;;;;;;;;;;;;;;;;;2056965;28;20429;-91
2023/08/27 05:42:59;;;;;;;;;;;;;;;;;;2057544;28;19918;-90
2023/08/27 05:43:59;;;;;;;;;;;;;;;;;;2056390;28;20420;-91
2023/08/27 05:45:00;;;;;;;;;;;;;;;;;;2056710;28;19921;-91
2023/08/27 05:46:00;;;;;;;;;;;;;;;;;;2056673;28;19918;-90
2023/08/27 05:47:00;;;;;;;;;;;;;;;;;;2049399;28;19918;-91
2023/08/27 05:48:00;;;;;;;;;;;;;;;;;;2061536;28;19918;-91
2023/08/27 05:49:01;;;;;;;;;;;;;;;;;;2060835;28;19937;-90
2023/08/27 05:50:01;;;;;;;;;;;;;;;;;;2062098;28;19917;-89
2023/08/27 05:51:03;;;;;;;;;;;;;;;;;;2059580;28;20396;-91
2023/08/27 05:52:03;;;;;;;;;;;;;;;;;;2053853;28;19929;-91
2023/08/27 05:53:06;;;;;;;;;;;;;;;;;;2054200;28;19958;-90
2023/08/27 05:54:06;;;;;;;;;;;;;;;;;;2055786;28;19915;-90
2023/08/27 05:55:07;;;;;;;;;;;;;;;;;;2061989;28;19940;-91
2023/08/27 05:56:08;;;;;;;;;;;;;;;;;;2065557;28;19956;-91
2023/08/27 05:57:08;;;;;;;;;;;;;;;;;;2059442;28;20443;-91
2023/08/27 05:58:08;;;;;;;;;;;;;;;;;;2049323;28;19918;-91
2023/08/27 05:59:09;;;;;;;;;;;;;;;;;;2056719;28;19910;-90
2023/08/27 06:00:10;;;;;;;;;;;;;;;;;;2057242;28;20297;-90
2023/08/27 06:01:10;;;;;;;;;;;;;;;;;;2059842;28;20378;-89
2023/08/27 06:02:13;;;;;;;;;;;;;;;;;;2059272;28;19910;-89
2023/08/27 06:03:13;;;;;;;;;;;;;;;;;;2053280;28;19911;-90
2023/08/27 06:04:14;;;;;;;;;;;;;;;;;;2059094;28;19925;-90
2023/08/27 06:05:15;;;;;;;;;;;;;;;;;;2059370;28;19910;-90
2023/08/27 06:06:15;;;;;;;;;;;;;;;;;;2055809;28;19941;-89
2023/08/27 06:07:16;;;;;;;;;;;;;;;;;;2058492;28;19981;-90
2023/08/27 06:08:16;;;;;;;;;;;;;;;;;;2058314;28;20362;-90
2023/08/27 06:09:22;;;;;;;;;;;;;;;;;;2053048;28;19974;-90
2023/08/27 06:11:26;;;;;;;;;;;;;;;;;;2059637;28;19922;-91
2023/08/27 06:12:26;;;;;;;;;;;;;;;;;;2062818;28;19918;-87
2023/08/27 06:13:27;;;;;;;;;;;;;;;;;;2053883;28;19989;-90
2023/08/27 06:14:27;;;;;;;;;;;;;;;;;;2057889;28;19918;-90
2023/08/27 06:15:38;;;;;;;;;;;;;;;;;;2060027;28;19937;-91
2023/08/27 06:16:41;;;;;;;;;;;;;;;;;;2060462;28;20004;-90
2023/08/27 06:17:42;;;;;;;;;;;;;;;;;;2042970;28;19929;-90
2023/08/27 06:18:42;;;;;;;;;;;;;;;;;;2059848;28;19953;-90
2023/08/27 06:19:43;;;;;;;;;;;;;;;;;;2057579;28;19925;-90
2023/08/27 06:20:43;;;;;;;;;;;;;;;;;;2060373;28;19918;-90
2023/08/27 06:21:44;;;;;;;;;;;;;;;;;;2058166;28;20314;-90
2023/08/27 06:23:14;;;;;;;;;;;;;;;;;;2060976;28;20464;-90
2023/08/27 06:24:16;;;;;;;;;;;;;;;;;;2056634;28;19922;-90
2023/08/27 06:25:17;;;;;;;;;;;;;;;;;;2057332;28;19928;-91
2023/08/27 06:26:17;;;;;;;;;;;;;;;;;;2057352;28;20428;-91
2023/08/27 06:27:17;;;;;;;;;;;;;;;;;;2057677;28;19918;-90
2023/08/27 06:28:51;;;;;;;;;;;;;;;;;;2050661;29;20434;-90
2023/08/27 06:29:51;;;;;;;;;;;;;;;;;;2028423;29;19918;-91
2023/08/27 06:30:51;;;;;;;;;;;;;;;;;;2055895;28;20353;-91
2023/08/27 06:31:52;;;;;;;;;;;;;;;;;;2065552;28;19917;-91
2023/08/27 06:32:52;;;;;;;;;;;;;;;;;;2057516;28;19913;-92
2023/08/27 06:33:52;;;;;;;;;;;;;;;;;;2055001;28;20390;-92
2023/08/27 06:34:54;;;;;;;;;;;;;;;;;;1710475;28;10003933;-91
2023/08/27 06:37:03;;;;;;;;;;;;;;;;;;2048873;28;19950;-91
2023/08/27 06:38:04;;;;;;;;;;;;;;;;;;2057833;28;19918;-92
2023/08/27 06:39:05;;;;;;;;;;;;;;;;;;2057757;28;19914;-91
2023/08/27 06:40:05;;;;;;;;;;;;;;;;;;2050891;28;19915;-92
2023/08/27 06:41:06;;;;;;;;;;;;;;;;;;1700450;28;10385446;-91
2023/08/27 06:42:06;;;;;;;;;;;;;;;;;;2118152;23;19960;-92
2023/08/27 06:43:06;;;;;;;;;;;;;;;;;;2053587;29;19941;-93
2023/08/27 06:44:06;;;;;;;;;;;;;;;;;;2041781;29;19918;-96
2023/08/27 06:45:07;;;;;;;;;;;;;;;;;;2042788;29;19919;-95
2023/08/27 06:46:08;;;;;;;;;;;;;;;;;;2052748;28;20008;-94
2023/08/27 06:47:08;;;;;;;;;;;;;;;;;;2058313;28;19957;-95
2023/08/27 06:49:17;;;;;;;;;;;;;;;;;;2055894;28;19929;-93
2023/08/27 06:50:17;;;;;;;;;;;;;;;;;;2050547;29;19920;-94
2023/08/27 06:51:18;;;;;;;;;;;;;;;;;;2043030;28;19906;-94
2023/08/27 06:52:18;;;;;;;;;;;;;;;;;;2057709;28;19918;-94
2023/08/27 06:53:20;;;;;;;;;;;;;;;;;;2058858;28;20452;-95
2023/08/27 06:54:40;;;;;;;;;;;;;;;;;;2061076;28;19925;-93
2023/08/27 06:57:22;;;;;;;;;;;;;;;;;;2103379;23;20366;-93
2023/08/27 06:58:23;;;;;;;;;;;;;;;;;;2063866;28;20900;-93
2023/08/27 06:59:26;;;;;;;;;;;;;;;;;;2059351;28;19903;-94
2023/08/27 07:00:28;;;;;;;;;;;;;;;;;;2051082;29;19914;-94
2023/08/27 07:02:28;;;;;;;;;;;;;;;;;;2155578;23;20408;-93
2023/08/27 07:03:30;;;;;;;;;;;;;;;;;;2044705;29;20379;-94
2023/08/27 07:05:40;;;;;;;;;;;;;;;;;;2112457;23;19938;-93